sensor_id;sensor_type;location;lat;lon;timestamp;P1;durP1;ratioP1;P2;durP2;ratioP2
12290;SDS011;6208;48.956;9.076;2023-04-28T00:00:35;6.10;;;5.28;;
12290;SDS011;6208;48.956;9.076;2023-04-28T00:03:19;5.63;;;5.05;;
12290;SDS011;6208;48.956;9.076;2023-04-28T00:06:03;6.72;;;5.03;;
12290;SDS011;6208;48.956;9.076;2023-04-28T00:08:48;5.75;;;4.80;;
12290;SDS011;6208;48.956;9.076;2023-04-28T00:11:32;5.30;;;4.80;;
12290;SDS011;6208;48.956;9.076;2023-04-28T00:14:16;5.50;;;5.07;;
12290;SDS011;6208;48.956;9.076;2023-04-28T00:17:01;6.63;;;5.30;;
12290;SDS011;6208;48.956;9.076;2023-04-28T00:19:48;7.90;;;5.07;;
12290;SDS011;6208;48.956;9.076;2023-04-28T00:22:33;7.53;;;5.40;;
12290;SDS011;6208;48.956;9.076;2023-04-28T00:25:17;5.43;;;4.90;;
12290;SDS011;6208;48.956;9.076;2023-04-28T00:28:01;6.10;;;5.50;;
12290;SDS011;6208;48.956;9.076;2023-04-28T00:30:46;5.13;;;4.72;;
12290;SDS011;6208;48.956;9.076;2023-04-28T00:33:30;5.10;;;4.70;;
12290;SDS011;6208;48.956;9.076;2023-04-28T00:36:14;5.60;;;5.10;;
12290;SDS011;6208;48.956;9.076;2023-04-28T00:38:59;5.55;;;5.05;;
12290;SDS011;6208;48.956;9.076;2023-04-28T00:41:43;5.22;;;4.72;;
12290;SDS011;6208;48.956;9.076;2023-04-28T00:44:27;6.30;;;4.30;;
12290;SDS011;6208;48.956;9.076;2023-04-28T00:47:11;5.90;;;4.57;;
12290;SDS011;6208;48.956;9.076;2023-04-28T00:49:55;5.30;;;4.80;;
12290;SDS011;6208;48.956;9.076;2023-04-28T00:52:40;6.35;;;5.10;;
12290;SDS011;6208;48.956;9.076;2023-04-28T00:55:26;5.47;;;4.90;;
12290;SDS011;6208;48.956;9.076;2023-04-28T00:58:14;5.20;;;4.78;;
12290;SDS011;6208;48.956;9.076;2023-04-28T01:01:05;5.68;;;5.15;;
12290;SDS011;6208;48.956;9.076;2023-04-28T01:03:52;7.47;;;5.07;;
12290;SDS011;6208;48.956;9.076;2023-04-28T01:06:36;4.80;;;4.40;;
12290;SDS011;6208;48.956;9.076;2023-04-28T01:09:21;4.82;;;4.47;;
12290;SDS011;6208;48.956;9.076;2023-04-28T01:12:05;6.88;;;5.43;;
12290;SDS011;6208;48.956;9.076;2023-04-28T01:14:50;9.40;;;4.95;;
12290;SDS011;6208;48.956;9.076;2023-04-28T01:17:34;6.75;;;5.13;;
12290;SDS011;6208;48.956;9.076;2023-04-28T01:20:21;6.93;;;4.80;;
12290;SDS011;6208;48.956;9.076;2023-04-28T01:23:10;6.38;;;4.97;;
12290;SDS011;6208;48.956;9.076;2023-04-28T01:25:58;5.10;;;4.70;;
12290;SDS011;6208;48.956;9.076;2023-04-28T01:28:44;4.75;;;4.35;;
12290;SDS011;6208;48.956;9.076;2023-04-28T01:31:28;5.90;;;4.45;;
12290;SDS011;6208;48.956;9.076;2023-04-28T01:34:15;5.30;;;4.72;;
12290;SDS011;6208;48.956;9.076;2023-04-28T01:36:59;5.72;;;4.32;;
12290;SDS011;6208;48.956;9.076;2023-04-28T01:39:43;4.93;;;4.45;;
12290;SDS011;6208;48.956;9.076;2023-04-28T01:42:28;5.50;;;5.10;;
12290;SDS011;6208;48.956;9.076;2023-04-28T01:45:12;5.75;;;4.97;;
12290;SDS011;6208;48.956;9.076;2023-04-28T01:47:56;5.63;;;5.10;;
12290;SDS011;6208;48.956;9.076;2023-04-28T01:50:40;5.82;;;5.00;;
12290;SDS011;6208;48.956;9.076;2023-04-28T01:53:26;5.00;;;4.60;;
12290;SDS011;6208;48.956;9.076;2023-04-28T01:56:10;5.05;;;4.63;;
12290;SDS011;6208;48.956;9.076;2023-04-28T01:58:55;6.18;;;5.68;;
12290;SDS011;6208;48.956;9.076;2023-04-28T02:01:38;6.55;;;5.95;;
12290;SDS011;6208;48.956;9.076;2023-04-28T02:04:23;6.68;;;5.40;;
12290;SDS011;6208;48.956;9.076;2023-04-28T02:07:08;6.45;;;5.22;;
12290;SDS011;6208;48.956;9.076;2023-04-28T02:09:52;6.55;;;4.50;;
12290;SDS011;6208;48.956;9.076;2023-04-28T02:12:35;5.00;;;4.50;;
12290;SDS011;6208;48.956;9.076;2023-04-28T02:15:19;5.00;;;4.50;;
12290;SDS011;6208;48.956;9.076;2023-04-28T02:18:04;5.00;;;4.47;;
12290;SDS011;6208;48.956;9.076;2023-04-28T02:20:48;6.05;;;4.28;;
12290;SDS011;6208;48.956;9.076;2023-04-28T02:23:32;4.60;;;4.05;;
12290;SDS011;6208;48.956;9.076;2023-04-28T02:26:16;4.72;;;3.83;;
12290;SDS011;6208;48.956;9.076;2023-04-28T02:29:00;5.47;;;4.50;;
12290;SDS011;6208;48.956;9.076;2023-04-28T02:31:46;4.60;;;4.30;;
12290;SDS011;6208;48.956;9.076;2023-04-28T02:34:31;4.28;;;3.97;;
12290;SDS011;6208;48.956;9.076;2023-04-28T02:37:15;5.53;;;4.35;;
12290;SDS011;6208;48.956;9.076;2023-04-28T02:39:59;5.10;;;3.83;;
12290;SDS011;6208;48.956;9.076;2023-04-28T02:42:43;4.47;;;4.07;;
12290;SDS011;6208;48.956;9.076;2023-04-28T02:45:27;5.55;;;4.80;;
12290;SDS011;6208;48.956;9.076;2023-04-28T02:48:11;5.38;;;4.88;;
12290;SDS011;6208;48.956;9.076;2023-04-28T02:50:55;5.07;;;4.72;;
12290;SDS011;6208;48.956;9.076;2023-04-28T02:53:39;6.82;;;4.65;;
12290;SDS011;6208;48.956;9.076;2023-04-28T02:56:23;5.22;;;4.72;;
12290;SDS011;6208;48.956;9.076;2023-04-28T02:59:08;7.10;;;5.32;;
12290;SDS011;6208;48.956;9.076;2023-04-28T03:01:52;5.28;;;4.78;;
12290;SDS011;6208;48.956;9.076;2023-04-28T03:04:36;6.15;;;5.55;;
12290;SDS011;6208;48.956;9.076;2023-04-28T03:07:20;5.70;;;5.20;;
12290;SDS011;6208;48.956;9.076;2023-04-28T03:10:04;6.80;;;5.57;;
12290;SDS011;6208;48.956;9.076;2023-04-28T03:12:49;6.22;;;5.70;;
12290;SDS011;6208;48.956;9.076;2023-04-28T03:15:33;7.32;;;5.63;;
12290;SDS011;6208;48.956;9.076;2023-04-28T03:18:17;6.22;;;5.53;;
12290;SDS011;6208;48.956;9.076;2023-04-28T03:21:01;5.68;;;5.15;;
12290;SDS011;6208;48.956;9.076;2023-04-28T03:23:45;5.50;;;4.57;;
12290;SDS011;6208;48.956;9.076;2023-04-28T03:26:29;5.78;;;4.95;;
12290;SDS011;6208;48.956;9.076;2023-04-28T03:29:13;4.90;;;4.60;;
12290;SDS011;6208;48.956;9.076;2023-04-28T03:32:00;5.30;;;4.80;;
12290;SDS011;6208;48.956;9.076;2023-04-28T03:34:44;5.00;;;4.57;;
12290;SDS011;6208;48.956;9.076;2023-04-28T03:37:29;5.63;;;4.70;;
12290;SDS011;6208;48.956;9.076;2023-04-28T03:40:13;5.60;;;4.85;;
12290;SDS011;6208;48.956;9.076;2023-04-28T03:42:58;5.20;;;4.80;;
12290;SDS011;6208;48.956;9.076;2023-04-28T03:45:42;5.43;;;5.03;;
12290;SDS011;6208;48.956;9.076;2023-04-28T03:48:26;6.03;;;5.60;;
12290;SDS011;6208;48.956;9.076;2023-04-28T03:51:10;7.53;;;5.72;;
12290;SDS011;6208;48.956;9.076;2023-04-28T03:53:54;6.70;;;5.97;;
12290;SDS011;6208;48.956;9.076;2023-04-28T03:56:38;6.07;;;5.53;;
12290;SDS011;6208;48.956;9.076;2023-04-28T03:59:23;6.43;;;5.82;;
12290;SDS011;6208;48.956;9.076;2023-04-28T04:02:07;6.05;;;5.38;;
12290;SDS011;6208;48.956;9.076;2023-04-28T04:04:51;6.63;;;5.72;;
12290;SDS011;6208;48.956;9.076;2023-04-28T04:07:35;6.20;;;5.20;;
12290;SDS011;6208;48.956;9.076;2023-04-28T04:10:19;6.60;;;6.00;;
12290;SDS011;6208;48.956;9.076;2023-04-28T04:13:03;5.65;;;5.15;;
12290;SDS011;6208;48.956;9.076;2023-04-28T04:15:48;4.80;;;4.40;;
12290;SDS011;6208;48.956;9.076;2023-04-28T04:18:33;5.40;;;5.00;;
12290;SDS011;6208;48.956;9.076;2023-04-28T04:21:17;5.60;;;5.07;;
12290;SDS011;6208;48.956;9.076;2023-04-28T04:24:01;6.03;;;5.50;;
12290;SDS011;6208;48.956;9.076;2023-04-28T04:26:45;7.05;;;5.20;;
12290;SDS011;6208;48.956;9.076;2023-04-28T04:29:29;6.32;;;5.72;;
12290;SDS011;6208;48.956;9.076;2023-04-28T04:32:14;5.70;;;5.18;;
12290;SDS011;6208;48.956;9.076;2023-04-28T04:34:58;5.82;;;5.32;;
12290;SDS011;6208;48.956;9.076;2023-04-28T04:37:42;6.88;;;6.28;;
12290;SDS011;6208;48.956;9.076;2023-04-28T04:40:26;7.63;;;5.82;;
12290;SDS011;6208;48.956;9.076;2023-04-28T04:43:10;6.00;;;5.43;;
12290;SDS011;6208;48.956;9.076;2023-04-28T04:45:54;5.63;;;5.10;;
12290;SDS011;6208;48.956;9.076;2023-04-28T04:48:38;5.60;;;5.10;;
12290;SDS011;6208;48.956;9.076;2023-04-28T04:51:23;5.65;;;5.03;;
12290;SDS011;6208;48.956;9.076;2023-04-28T04:54:07;5.88;;;5.20;;
12290;SDS011;6208;48.956;9.076;2023-04-28T04:56:51;5.57;;;5.07;;
12290;SDS011;6208;48.956;9.076;2023-04-28T04:59:35;6.07;;;5.47;;
12290;SDS011;6208;48.956;9.076;2023-04-28T05:02:19;5.78;;;5.20;;
12290;SDS011;6208;48.956;9.076;2023-04-28T05:05:04;6.32;;;5.72;;
12290;SDS011;6208;48.956;9.076;2023-04-28T05:07:48;5.85;;;5.40;;
12290;SDS011;6208;48.956;9.076;2023-04-28T05:10:35;5.65;;;5.22;;
12290;SDS011;6208;48.956;9.076;2023-04-28T05:13:19;7.05;;;6.43;;
12290;SDS011;6208;48.956;9.076;2023-04-28T05:16:04;7.15;;;5.35;;
12290;SDS011;6208;48.956;9.076;2023-04-28T05:18:49;6.75;;;5.80;;
12290;SDS011;6208;48.956;9.076;2023-04-28T05:21:33;6.63;;;6.05;;
12290;SDS011;6208;48.956;9.076;2023-04-28T05:24:19;6.80;;;6.20;;
12290;SDS011;6208;48.956;9.076;2023-04-28T05:27:06;7.55;;;6.80;;
12290;SDS011;6208;48.956;9.076;2023-04-28T05:29:50;6.88;;;5.93;;
12290;SDS011;6208;48.956;9.076;2023-04-28T05:32:34;6.65;;;6.13;;
12290;SDS011;6208;48.956;9.076;2023-04-28T05:35:20;6.38;;;5.88;;
12290;SDS011;6208;48.956;9.076;2023-04-28T05:38:07;6.38;;;5.78;;
12290;SDS011;6208;48.956;9.076;2023-04-28T05:40:52;6.53;;;6.03;;
12290;SDS011;6208;48.956;9.076;2023-04-28T05:43:37;6.68;;;6.03;;
12290;SDS011;6208;48.956;9.076;2023-04-28T05:46:21;6.82;;;6.20;;
12290;SDS011;6208;48.956;9.076;2023-04-28T05:49:05;14.70;;;13.20;;
12290;SDS011;6208;48.956;9.076;2023-04-28T05:51:49;10.95;;;9.95;;
12290;SDS011;6208;48.956;9.076;2023-04-28T05:54:34;7.53;;;6.78;;
12290;SDS011;6208;48.956;9.076;2023-04-28T05:57:18;7.47;;;6.18;;
12290;SDS011;6208;48.956;9.076;2023-04-28T06:00:05;8.57;;;5.85;;
12290;SDS011;6208;48.956;9.076;2023-04-28T06:02:50;6.15;;;5.55;;
12290;SDS011;6208;48.956;9.076;2023-04-28T06:05:34;6.20;;;5.70;;
12290;SDS011;6208;48.956;9.076;2023-04-28T06:08:18;8.25;;;5.32;;
12290;SDS011;6208;48.956;9.076;2023-04-28T06:11:02;6.10;;;5.60;;
12290;SDS011;6208;48.956;9.076;2023-04-28T06:13:46;7.70;;;5.40;;
12290;SDS011;6208;48.956;9.076;2023-04-28T06:16:31;6.90;;;6.30;;
12290;SDS011;6208;48.956;9.076;2023-04-28T06:19:15;7.13;;;6.25;;
12290;SDS011;6208;48.956;9.076;2023-04-28T06:22:01;7.10;;;6.60;;
12290;SDS011;6208;48.956;9.076;2023-04-28T06:24:45;7.40;;;6.70;;
12290;SDS011;6208;48.956;9.076;2023-04-28T06:27:33;8.80;;;7.28;;
12290;SDS011;6208;48.956;9.076;2023-04-28T06:30:18;10.15;;;7.50;;
12290;SDS011;6208;48.956;9.076;2023-04-28T06:33:04;7.97;;;7.30;;
12290;SDS011;6208;48.956;9.076;2023-04-28T06:35:48;6.82;;;6.22;;
12290;SDS011;6208;48.956;9.076;2023-04-28T06:38:32;9.48;;;7.00;;
12290;SDS011;6208;48.956;9.076;2023-04-28T06:41:16;7.75;;;7.03;;
12290;SDS011;6208;48.956;9.076;2023-04-28T06:44:00;8.27;;;7.47;;
12290;SDS011;6208;48.956;9.076;2023-04-28T06:46:44;7.57;;;6.80;;
12290;SDS011;6208;48.956;9.076;2023-04-28T06:49:29;8.02;;;7.32;;
12290;SDS011;6208;48.956;9.076;2023-04-28T06:52:12;7.10;;;6.47;;
12290;SDS011;6208;48.956;9.076;2023-04-28T06:54:57;9.07;;;7.63;;
12290;SDS011;6208;48.956;9.076;2023-04-28T06:57:41;10.50;;;8.57;;
12290;SDS011;6208;48.956;9.076;2023-04-28T07:00:26;8.68;;;7.82;;
12290;SDS011;6208;48.956;9.076;2023-04-28T07:03:10;10.68;;;7.20;;
12290;SDS011;6208;48.956;9.076;2023-04-28T07:05:54;9.50;;;7.20;;
12290;SDS011;6208;48.956;9.076;2023-04-28T07:08:40;7.85;;;7.05;;
12290;SDS011;6208;48.956;9.076;2023-04-28T07:11:27;8.10;;;7.32;;
12290;SDS011;6208;48.956;9.076;2023-04-28T07:14:11;7.63;;;6.97;;
12290;SDS011;6208;48.956;9.076;2023-04-28T07:16:55;8.10;;;7.40;;
12290;SDS011;6208;48.956;9.076;2023-04-28T07:19:39;9.15;;;8.35;;
12290;SDS011;6208;48.956;9.076;2023-04-28T07:22:23;8.60;;;7.70;;
12290;SDS011;6208;48.956;9.076;2023-04-28T07:25:10;7.75;;;6.95;;
12290;SDS011;6208;48.956;9.076;2023-04-28T07:27:54;8.30;;;7.60;;
12290;SDS011;6208;48.956;9.076;2023-04-28T07:30:38;8.43;;;7.63;;
12290;SDS011;6208;48.956;9.076;2023-04-28T07:33:23;8.18;;;7.40;;
12290;SDS011;6208;48.956;9.076;2023-04-28T07:36:08;8.45;;;6.05;;
12290;SDS011;6208;48.956;9.076;2023-04-28T07:38:52;7.72;;;6.93;;
12290;SDS011;6208;48.956;9.076;2023-04-28T07:41:37;8.00;;;7.25;;
12290;SDS011;6208;48.956;9.076;2023-04-28T07:44:21;7.88;;;7.18;;
12290;SDS011;6208;48.956;9.076;2023-04-28T07:47:06;7.70;;;6.90;;
12290;SDS011;6208;48.956;9.076;2023-04-28T07:49:49;10.43;;;8.48;;
12290;SDS011;6208;48.956;9.076;2023-04-28T07:52:34;7.80;;;7.10;;
12290;SDS011;6208;48.956;9.076;2023-04-28T07:55:18;10.10;;;8.98;;
12290;SDS011;6208;48.956;9.076;2023-04-28T07:58:05;9.93;;;8.93;;
12290;SDS011;6208;48.956;9.076;2023-04-28T08:00:50;9.60;;;8.60;;
12290;SDS011;6208;48.956;9.076;2023-04-28T08:03:34;10.63;;;9.52;;
12290;SDS011;6208;48.956;9.076;2023-04-28T08:06:18;10.55;;;9.55;;
12290;SDS011;6208;48.956;9.076;2023-04-28T08:09:03;11.80;;;10.70;;
12290;SDS011;6208;48.956;9.076;2023-04-28T08:11:48;11.30;;;10.30;;
12290;SDS011;6208;48.956;9.076;2023-04-28T08:14:32;10.88;;;9.93;;
12290;SDS011;6208;48.956;9.076;2023-04-28T08:17:17;9.45;;;8.55;;
12290;SDS011;6208;48.956;9.076;2023-04-28T08:20:01;11.43;;;10.45;;
12290;SDS011;6208;48.956;9.076;2023-04-28T08:22:46;19.52;;;17.45;;
12290;SDS011;6208;48.956;9.076;2023-04-28T08:25:30;11.10;;;10.18;;
12290;SDS011;6208;48.956;9.076;2023-04-28T08:28:14;10.25;;;9.27;;
12290;SDS011;6208;48.956;9.076;2023-04-28T08:30:59;10.88;;;9.88;;
12290;SDS011;6208;48.956;9.076;2023-04-28T08:33:43;10.00;;;9.10;;
12290;SDS011;6208;48.956;9.076;2023-04-28T08:36:31;10.88;;;9.88;;
12290;SDS011;6208;48.956;9.076;2023-04-28T08:39:15;10.73;;;9.80;;
12290;SDS011;6208;48.956;9.076;2023-04-28T08:42:03;10.93;;;10.02;;
12290;SDS011;6208;48.956;9.076;2023-04-28T08:44:48;11.25;;;10.20;;
12290;SDS011;6208;48.956;9.076;2023-04-28T08:47:35;12.80;;;11.18;;
12290;SDS011;6208;48.956;9.076;2023-04-28T08:50:28;13.25;;;12.15;;
12290;SDS011;6208;48.956;9.076;2023-04-28T08:53:15;12.23;;;11.13;;
12290;SDS011;6208;48.956;9.076;2023-04-28T08:56:05;18.15;;;16.35;;
12290;SDS011;6208;48.956;9.076;2023-04-28T08:58:50;13.40;;;12.30;;
12290;SDS011;6208;48.956;9.076;2023-04-28T09:01:35;9.85;;;9.02;;
12290;SDS011;6208;48.956;9.076;2023-04-28T09:04:20;9.43;;;8.70;;
12290;SDS011;6208;48.956;9.076;2023-04-28T09:07:09;9.45;;;8.65;;
12290;SDS011;6208;48.956;9.076;2023-04-28T09:13:08;9.45;;;8.75;;
12290;SDS011;6208;48.956;9.076;2023-04-28T09:15:58;7.82;;;7.22;;
12290;SDS011;6208;48.956;9.076;2023-04-28T09:18:54;8.05;;;7.38;;
12290;SDS011;6208;48.956;9.076;2023-04-28T09:24:37;7.38;;;6.85;;
12290;SDS011;6208;48.956;9.076;2023-04-28T09:27:26;7.93;;;7.20;;
12290;SDS011;6208;48.956;9.076;2023-04-28T09:30:11;7.45;;;6.85;;
12290;SDS011;6208;48.956;9.076;2023-04-28T09:33:04;7.03;;;6.53;;
12290;SDS011;6208;48.956;9.076;2023-04-28T09:35:51;7.15;;;6.57;;
12290;SDS011;6208;48.956;9.076;2023-04-28T09:38:41;7.38;;;6.70;;
12290;SDS011;6208;48.956;9.076;2023-04-28T09:41:34;5.15;;;4.75;;
12290;SDS011;6208;48.956;9.076;2023-04-28T09:44:28;4.25;;;3.95;;
12290;SDS011;6208;48.956;9.076;2023-04-28T09:47:19;4.10;;;3.80;;
12290;SDS011;6208;48.956;9.076;2023-04-28T09:50:05;3.60;;;3.40;;
12290;SDS011;6208;48.956;9.076;2023-04-28T09:52:56;4.15;;;3.83;;
12290;SDS011;6208;48.956;9.076;2023-04-28T09:55:43;3.90;;;3.70;;
12290;SDS011;6208;48.956;9.076;2023-04-28T09:58:29;3.70;;;3.50;;
12290;SDS011;6208;48.956;9.076;2023-04-28T10:01:15;6.57;;;6.07;;
12290;SDS011;6208;48.956;9.076;2023-04-28T10:03:59;4.60;;;4.30;;
12290;SDS011;6208;48.956;9.076;2023-04-28T10:06:46;4.20;;;3.80;;
12290;SDS011;6208;48.956;9.076;2023-04-28T10:09:31;4.82;;;4.43;;
12290;SDS011;6208;48.956;9.076;2023-04-28T10:15:03;4.75;;;4.45;;
12290;SDS011;6208;48.956;9.076;2023-04-28T10:17:49;5.05;;;4.75;;
12290;SDS011;6208;48.956;9.076;2023-04-28T10:20:34;4.22;;;3.92;;
12290;SDS011;6208;48.956;9.076;2023-04-28T10:26:13;4.43;;;4.22;;
12290;SDS011;6208;48.956;9.076;2023-04-28T10:29:00;4.43;;;4.13;;
12290;SDS011;6208;48.956;9.076;2023-04-28T10:38:22;5.50;;;4.43;;
12290;SDS011;6208;48.956;9.076;2023-04-28T10:41:06;4.43;;;4.13;;
12290;SDS011;6208;48.956;9.076;2023-04-28T10:47:18;4.95;;;4.65;;
12290;SDS011;6208;48.956;9.076;2023-04-28T10:50:03;4.85;;;4.25;;
12290;SDS011;6208;48.956;9.076;2023-04-28T10:52:49;5.00;;;4.70;;
12290;SDS011;6208;48.956;9.076;2023-04-28T10:55:33;4.97;;;4.68;;
12290;SDS011;6208;48.956;9.076;2023-04-28T11:01:29;3.67;;;3.38;;
12290;SDS011;6208;48.956;9.076;2023-04-28T11:04:17;3.80;;;3.50;;
12290;SDS011;6208;48.956;9.076;2023-04-28T11:07:08;3.70;;;3.50;;
12290;SDS011;6208;48.956;9.076;2023-04-28T11:09:54;3.47;;;3.28;;
12290;SDS011;6208;48.956;9.076;2023-04-28T11:13:14;4.05;;;3.70;;
12290;SDS011;6208;48.956;9.076;2023-04-28T11:16:05;4.20;;;3.90;;
12290;SDS011;6208;48.956;9.076;2023-04-28T11:18:51;3.28;;;3.08;;
12290;SDS011;6208;48.956;9.076;2023-04-28T11:21:46;3.13;;;2.92;;
12290;SDS011;6208;48.956;9.076;2023-04-28T11:24:31;3.90;;;3.35;;
12290;SDS011;6208;48.956;9.076;2023-04-28T11:27:22;3.53;;;3.13;;
12290;SDS011;6208;48.956;9.076;2023-04-28T11:30:19;3.83;;;3.40;;
12290;SDS011;6208;48.956;9.076;2023-04-28T11:33:05;3.03;;;2.72;;
12290;SDS011;6208;48.956;9.076;2023-04-28T11:35:50;3.22;;;2.85;;
12290;SDS011;6208;48.956;9.076;2023-04-28T11:38:41;3.38;;;3.15;;
12290;SDS011;6208;48.956;9.076;2023-04-28T11:41:26;2.10;;;2.00;;
12290;SDS011;6208;48.956;9.076;2023-04-28T11:44:15;2.38;;;2.28;;
12290;SDS011;6208;48.956;9.076;2023-04-28T11:47:03;2.30;;;2.20;;
12290;SDS011;6208;48.956;9.076;2023-04-28T11:49:49;2.28;;;2.17;;
12290;SDS011;6208;48.956;9.076;2023-04-28T11:52:34;2.17;;;2.00;;
12290;SDS011;6208;48.956;9.076;2023-04-28T11:55:18;2.00;;;1.90;;
12290;SDS011;6208;48.956;9.076;2023-04-28T11:58:21;2.17;;;2.08;;
12290;SDS011;6208;48.956;9.076;2023-04-28T12:01:10;2.42;;;2.22;;
12290;SDS011;6208;48.956;9.076;2023-04-28T12:03:58;2.13;;;2.03;;
12290;SDS011;6208;48.956;9.076;2023-04-28T12:06:43;2.40;;;2.30;;
12290;SDS011;6208;48.956;9.076;2023-04-28T12:09:27;2.50;;;2.40;;
12290;SDS011;6208;48.956;9.076;2023-04-28T12:12:13;2.42;;;2.25;;
12290;SDS011;6208;48.956;9.076;2023-04-28T12:15:08;1.58;;;1.50;;
12290;SDS011;6208;48.956;9.076;2023-04-28T12:17:53;1.70;;;1.60;;
12290;SDS011;6208;48.956;9.076;2023-04-28T12:20:37;1.50;;;1.50;;
12290;SDS011;6208;48.956;9.076;2023-04-28T12:23:31;1.58;;;1.48;;
12290;SDS011;6208;48.956;9.076;2023-04-28T12:26:23;0.80;;;0.80;;
12290;SDS011;6208;48.956;9.076;2023-04-28T12:29:08;1.02;;;0.93;;
12290;SDS011;6208;48.956;9.076;2023-04-28T12:31:56;1.10;;;1.00;;
12290;SDS011;6208;48.956;9.076;2023-04-28T12:34:40;1.30;;;1.20;;
12290;SDS011;6208;48.956;9.076;2023-04-28T12:37:25;0.95;;;0.95;;
12290;SDS011;6208;48.956;9.076;2023-04-28T12:40:10;1.15;;;1.15;;
12290;SDS011;6208;48.956;9.076;2023-04-28T12:42:54;7.53;;;5.65;;
12290;SDS011;6208;48.956;9.076;2023-04-28T12:45:39;2.28;;;1.83;;
12290;SDS011;6208;48.956;9.076;2023-04-28T12:48:24;2.28;;;2.03;;
12290;SDS011;6208;48.956;9.076;2023-04-28T12:51:10;2.83;;;2.63;;
12290;SDS011;6208;48.956;9.076;2023-04-28T12:53:54;1.27;;;1.27;;
12290;SDS011;6208;48.956;9.076;2023-04-28T12:56:38;1.35;;;1.27;;
12290;SDS011;6208;48.956;9.076;2023-04-28T12:59:22;2.05;;;1.48;;
12290;SDS011;6208;48.956;9.076;2023-04-28T13:02:06;1.70;;;1.50;;
12290;SDS011;6208;48.956;9.076;2023-04-28T13:04:50;1.38;;;1.27;;
12290;SDS011;6208;48.956;9.076;2023-04-28T13:07:35;3.67;;;1.70;;
12290;SDS011;6208;48.956;9.076;2023-04-28T13:10:19;1.90;;;1.80;;
12290;SDS011;6208;48.956;9.076;2023-04-28T13:13:06;1.67;;;1.52;;
12290;SDS011;6208;48.956;9.076;2023-04-28T13:15:54;1.60;;;1.60;;
12290;SDS011;6208;48.956;9.076;2023-04-28T13:18:38;1.45;;;1.35;;
12290;SDS011;6208;48.956;9.076;2023-04-28T13:21:23;1.80;;;1.70;;
12290;SDS011;6208;48.956;9.076;2023-04-28T13:24:09;1.92;;;1.83;;
12290;SDS011;6208;48.956;9.076;2023-04-28T13:26:53;5.05;;;2.30;;
12290;SDS011;6208;48.956;9.076;2023-04-28T13:29:37;1.83;;;1.77;;
12290;SDS011;6208;48.956;9.076;2023-04-28T13:32:23;1.58;;;1.50;;
12290;SDS011;6208;48.956;9.076;2023-04-28T13:35:07;1.98;;;1.88;;
12290;SDS011;6208;48.956;9.076;2023-04-28T13:37:52;1.75;;;1.65;;
12290;SDS011;6208;48.956;9.076;2023-04-28T13:40:44;2.20;;;2.10;;
12290;SDS011;6208;48.956;9.076;2023-04-28T13:43:28;2.30;;;2.20;;
12290;SDS011;6208;48.956;9.076;2023-04-28T13:46:20;2.70;;;2.50;;
12290;SDS011;6208;48.956;9.076;2023-04-28T13:49:04;2.58;;;2.38;;
12290;SDS011;6208;48.956;9.076;2023-04-28T13:51:48;2.40;;;2.30;;
12290;SDS011;6208;48.956;9.076;2023-04-28T13:54:32;2.50;;;2.35;;
12290;SDS011;6208;48.956;9.076;2023-04-28T13:57:16;2.63;;;2.42;;
12290;SDS011;6208;48.956;9.076;2023-04-28T14:00:01;3.17;;;2.40;;
12290;SDS011;6208;48.956;9.076;2023-04-28T14:02:47;3.45;;;2.55;;
12290;SDS011;6208;48.956;9.076;2023-04-28T14:05:33;1.80;;;1.70;;
12290;SDS011;6208;48.956;9.076;2023-04-28T14:08:17;2.05;;;1.88;;
12290;SDS011;6208;48.956;9.076;2023-04-28T14:11:01;2.10;;;1.92;;
12290;SDS011;6208;48.956;9.076;2023-04-28T14:13:45;1.70;;;1.60;;
12290;SDS011;6208;48.956;9.076;2023-04-28T14:16:29;1.63;;;1.52;;
12290;SDS011;6208;48.956;9.076;2023-04-28T14:19:14;2.00;;;1.30;;
12290;SDS011;6208;48.956;9.076;2023-04-28T14:22:00;2.60;;;2.40;;
12290;SDS011;6208;48.956;9.076;2023-04-28T14:24:45;1.33;;;1.33;;
12290;SDS011;6208;48.956;9.076;2023-04-28T14:27:29;1.00;;;1.00;;
12290;SDS011;6208;48.956;9.076;2023-04-28T14:30:13;0.60;;;0.60;;
12290;SDS011;6208;48.956;9.076;2023-04-28T14:32:57;0.55;;;0.55;;
12290;SDS011;6208;48.956;9.076;2023-04-28T14:35:42;0.60;;;0.60;;
12290;SDS011;6208;48.956;9.076;2023-04-28T14:38:27;1.85;;;0.70;;
12290;SDS011;6208;48.956;9.076;2023-04-28T14:41:13;0.65;;;0.60;;
12290;SDS011;6208;48.956;9.076;2023-04-28T14:43:57;0.98;;;0.60;;
12290;SDS011;6208;48.956;9.076;2023-04-28T14:46:41;0.40;;;0.40;;
12290;SDS011;6208;48.956;9.076;2023-04-28T14:49:26;0.75;;;0.57;;
12290;SDS011;6208;48.956;9.076;2023-04-28T14:52:10;0.50;;;0.50;;
12290;SDS011;6208;48.956;9.076;2023-04-28T14:54:55;0.65;;;0.65;;
12290;SDS011;6208;48.956;9.076;2023-04-28T14:57:40;0.95;;;0.60;;
12290;SDS011;6208;48.956;9.076;2023-04-28T15:00:24;0.70;;;0.70;;
12290;SDS011;6208;48.956;9.076;2023-04-28T15:03:08;0.77;;;0.50;;
12290;SDS011;6208;48.956;9.076;2023-04-28T15:05:52;0.63;;;0.52;;
12290;SDS011;6208;48.956;9.076;2023-04-28T15:08:36;0.80;;;0.80;;
12290;SDS011;6208;48.956;9.076;2023-04-28T15:11:22;0.82;;;0.80;;
12290;SDS011;6208;48.956;9.076;2023-04-28T15:14:07;2.58;;;0.60;;
12290;SDS011;6208;48.956;9.076;2023-04-28T15:16:52;0.70;;;0.70;;
12290;SDS011;6208;48.956;9.076;2023-04-28T15:19:37;2.85;;;1.35;;
12290;SDS011;6208;48.956;9.076;2023-04-28T15:22:21;1.33;;;1.23;;
12290;SDS011;6208;48.956;9.076;2023-04-28T15:25:08;0.70;;;0.70;;
12290;SDS011;6208;48.956;9.076;2023-04-28T15:27:53;0.70;;;0.70;;
12290;SDS011;6208;48.956;9.076;2023-04-28T15:30:37;2.20;;;0.68;;
12290;SDS011;6208;48.956;9.076;2023-04-28T15:33:22;1.13;;;0.90;;
12290;SDS011;6208;48.956;9.076;2023-04-28T15:36:07;0.70;;;0.70;;
12290;SDS011;6208;48.956;9.076;2023-04-28T15:38:51;0.80;;;0.80;;
12290;SDS011;6208;48.956;9.076;2023-04-28T15:41:36;0.60;;;0.60;;
12290;SDS011;6208;48.956;9.076;2023-04-28T15:44:20;1.48;;;1.35;;
12290;SDS011;6208;48.956;9.076;2023-04-28T15:47:04;0.60;;;0.60;;
12290;SDS011;6208;48.956;9.076;2023-04-28T15:49:49;2.35;;;1.52;;
12290;SDS011;6208;48.956;9.076;2023-04-28T15:52:36;3.50;;;2.13;;
12290;SDS011;6208;48.956;9.076;2023-04-28T15:55:28;2.95;;;2.55;;
12290;SDS011;6208;48.956;9.076;2023-04-28T15:58:12;1.55;;;1.45;;
12290;SDS011;6208;48.956;9.076;2023-04-28T16:00:57;1.63;;;1.52;;
12290;SDS011;6208;48.956;9.076;2023-04-28T16:03:42;2.50;;;1.50;;
12290;SDS011;6208;48.956;9.076;2023-04-28T16:06:26;5.95;;;2.10;;
12290;SDS011;6208;48.956;9.076;2023-04-28T16:09:11;40.72;;;24.10;;
12290;SDS011;6208;48.956;9.076;2023-04-28T16:11:58;9.10;;;5.78;;
12290;SDS011;6208;48.956;9.076;2023-04-28T16:14:49;7.13;;;4.13;;
12290;SDS011;6208;48.956;9.076;2023-04-28T16:17:33;1.00;;;1.00;;
12290;SDS011;6208;48.956;9.076;2023-04-28T16:20:18;1.65;;;1.55;;
12290;SDS011;6208;48.956;9.076;2023-04-28T16:23:04;1.10;;;1.00;;
12290;SDS011;6208;48.956;9.076;2023-04-28T16:25:49;3.30;;;2.22;;
12290;SDS011;6208;48.956;9.076;2023-04-28T16:28:33;0.80;;;0.80;;
12290;SDS011;6208;48.956;9.076;2023-04-28T16:31:18;2.15;;;1.20;;
12290;SDS011;6208;48.956;9.076;2023-04-28T16:34:02;3.65;;;3.38;;
12290;SDS011;6208;48.956;9.076;2023-04-28T16:36:46;1.67;;;1.17;;
12290;SDS011;6208;48.956;9.076;2023-04-28T16:39:30;4.30;;;1.23;;
12290;SDS011;6208;48.956;9.076;2023-04-28T16:42:14;3.83;;;1.33;;
12290;SDS011;6208;48.956;9.076;2023-04-28T16:44:59;1.80;;;1.10;;
12290;SDS011;6208;48.956;9.076;2023-04-28T16:47:43;1.40;;;1.40;;
12290;SDS011;6208;48.956;9.076;2023-04-28T16:50:29;1.58;;;1.00;;
12290;SDS011;6208;48.956;9.076;2023-04-28T16:53:15;0.90;;;0.90;;
12290;SDS011;6208;48.956;9.076;2023-04-28T16:55:58;1.85;;;0.70;;
12290;SDS011;6208;48.956;9.076;2023-04-28T16:58:42;0.80;;;0.80;;
12290;SDS011;6208;48.956;9.076;2023-04-28T17:01:27;0.70;;;0.70;;
12290;SDS011;6208;48.956;9.076;2023-04-28T17:04:11;1.27;;;1.00;;
12290;SDS011;6208;48.956;9.076;2023-04-28T17:06:56;0.70;;;0.70;;
12290;SDS011;6208;48.956;9.076;2023-04-28T17:09:41;1.88;;;1.02;;
12290;SDS011;6208;48.956;9.076;2023-04-28T17:12:25;0.77;;;0.77;;
12290;SDS011;6208;48.956;9.076;2023-04-28T17:15:12;1.10;;;1.00;;